sensor_id;sensor_type;location;lat;lon;timestamp;temperature;humidity
29731;DHT22;16639;51.488;0.152;2024-02-15T00:00:22;12.60;99.90
29731;DHT22;16639;51.488;0.152;2024-02-15T00:02:53;12.70;99.90
29731;DHT22;16639;51.488;0.152;2024-02-15T00:05:20;12.70;99.90
29731;DHT22;16639;51.488;0.152;2024-02-15T00:07:47;12.70;99.90
29731;DHT22;16639;51.488;0.152;2024-02-15T00:10:16;12.70;99.90
29731;DHT22;16639;51.488;0.152;2024-02-15T00:12:43;12.70;99.90
29731;DHT22;16639;51.488;0.152;2024-02-15T00:15:11;12.70;99.90
29731;DHT22;16639;51.488;0.152;2024-02-15T00:17:39;12.70;99.90
29731;DHT22;16639;51.488;0.152;2024-02-15T00:20:08;12.60;99.90
29731;DHT22;16639;51.488;0.152;2024-02-15T00:22:37;12.60;99.90
29731;DHT22;16639;51.488;0.152;2024-02-15T00:25:04;12.60;99.90
29731;DHT22;16639;51.488;0.152;2024-02-15T00:27:33;12.50;99.90
29731;DHT22;16639;51.488;0.152;2024-02-15T00:30:03;12.50;99.90
29731;DHT22;16639;51.488;0.152;2024-02-15T00:32:33;12.90;99.90
29731;DHT22;16639;51.488;0.152;2024-02-15T00:35:00;12.50;99.90
29731;DHT22;16639;51.488;0.152;2024-02-15T00:37:28;12.50;99.90
29731;DHT22;16639;51.488;0.152;2024-02-15T00:39:56;12.50;99.90
29731;DHT22;16639;51.488;0.152;2024-02-15T00:42:23;12.50;99.90
29731;DHT22;16639;51.488;0.152;2024-02-15T00:44:51;13.20;99.90
29731;DHT22;16639;51.488;0.152;2024-02-15T00:47:18;12.60;99.90
29731;DHT22;16639;51.488;0.152;2024-02-15T00:49:48;12.50;99.90
29731;DHT22;16639;51.488;0.152;2024-02-15T00:52:19;12.50;99.90
29731;DHT22;16639;51.488;0.152;2024-02-15T00:54:47;12.40;99.90
29731;DHT22;16639;51.488;0.152;2024-02-15T00:57:14;12.50;99.90
29731;DHT22;16639;51.488;0.152;2024-02-15T00:59:42;12.50;99.90
29731;DHT22;16639;51.488;0.152;2024-02-15T01:02:09;12.50;99.90
29731;DHT22;16639;51.488;0.152;2024-02-15T01:04:36;12.50;99.90
29731;DHT22;16639;51.488;0.152;2024-02-15T01:07:04;12.50;99.90
29731;DHT22;16639;51.488;0.152;2024-02-15T01:09:31;12.60;99.90
29731;DHT22;16639;51.488;0.152;2024-02-15T01:11:58;12.60;99.90
29731;DHT22;16639;51.488;0.152;2024-02-15T01:14:26;12.60;99.90
29731;DHT22;16639;51.488;0.152;2024-02-15T01:16:57;12.60;99.90
29731;DHT22;16639;51.488;0.152;2024-02-15T01:19:25;12.60;99.90
29731;DHT22;16639;51.488;0.152;2024-02-15T01:21:52;12.60;99.90
29731;DHT22;16639;51.488;0.152;2024-02-15T01:24:20;12.60;99.90
29731;DHT22;16639;51.488;0.152;2024-02-15T01:26:48;12.40;99.90
29731;DHT22;16639;51.488;0.152;2024-02-15T01:29:16;12.60;99.90
29731;DHT22;16639;51.488;0.152;2024-02-15T01:31:44;12.60;99.90
29731;DHT22;16639;51.488;0.152;2024-02-15T01:34:11;12.60;99.90
29731;DHT22;16639;51.488;0.152;2024-02-15T01:36:39;12.60;99.90
29731;DHT22;16639;51.488;0.152;2024-02-15T01:39:06;12.60;99.90
29731;DHT22;16639;51.488;0.152;2024-02-15T01:41:34;12.60;99.90
29731;DHT22;16639;51.488;0.152;2024-02-15T01:44:02;12.60;99.90
29731;DHT22;16639;51.488;0.152;2024-02-15T01:46:30;12.60;99.90
29731;DHT22;16639;51.488;0.152;2024-02-15T01:48:58;13.20;99.90
29731;DHT22;16639;51.488;0.152;2024-02-15T01:51:27;12.60;99.90
29731;DHT22;16639;51.488;0.152;2024-02-15T01:53:54;12.60;99.90
29731;DHT22;16639;51.488;0.152;2024-02-15T01:56:23;12.70;99.90
29731;DHT22;16639;51.488;0.152;2024-02-15T01:58:52;12.60;99.90
29731;DHT22;16639;51.488;0.152;2024-02-15T02:01:20;12.60;99.90
29731;DHT22;16639;51.488;0.152;2024-02-15T02:03:49;12.60;99.90
29731;DHT22;16639;51.488;0.152;2024-02-15T02:06:16;12.60;99.90
29731;DHT22;16639;51.488;0.152;2024-02-15T02:08:43;12.60;99.90
29731;DHT22;16639;51.488;0.152;2024-02-15T02:11:11;12.60;99.90
29731;DHT22;16639;51.488;0.152;2024-02-15T02:13:38;12.50;99.90
29731;DHT22;16639;51.488;0.152;2024-02-15T02:16:27;12.60;99.90
29731;DHT22;16639;51.488;0.152;2024-02-15T02:18:55;12.60;99.90
29731;DHT22;16639;51.488;0.152;2024-02-15T02:21:26;12.60;99.90
29731;DHT22;16639;51.488;0.152;2024-02-15T02:23:57;12.60;99.90
29731;DHT22;16639;51.488;0.152;2024-02-15T02:26:25;13.10;99.90
29731;DHT22;16639;51.488;0.152;2024-02-15T02:28:53;12.60;99.90
29731;DHT22;16639;51.488;0.152;2024-02-15T02:31:21;12.60;99.90
29731;DHT22;16639;51.488;0.152;2024-02-15T02:33:52;12.60;99.90
29731;DHT22;16639;51.488;0.152;2024-02-15T02:36:20;12.60;99.90
29731;DHT22;16639;51.488;0.152;2024-02-15T02:38:48;12.60;99.90
29731;DHT22;16639;51.488;0.152;2024-02-15T02:41:19;12.60;99.90
29731;DHT22;16639;51.488;0.152;2024-02-15T02:43:47;12.60;99.90
29731;DHT22;16639;51.488;0.152;2024-02-15T02:46:14;12.60;99.90
29731;DHT22;16639;51.488;0.152;2024-02-15T02:48:41;12.60;99.90
29731;DHT22;16639;51.488;0.152;2024-02-15T02:51:09;12.00;99.90
29731;DHT22;16639;51.488;0.152;2024-02-15T02:53:37;12.60;99.90
29731;DHT22;16639;51.488;0.152;2024-02-15T02:56:04;12.60;99.90
29731;DHT22;16639;51.488;0.152;2024-02-15T02:58:32;12.60;99.90
29731;DHT22;16639;51.488;0.152;2024-02-15T03:01:00;11.80;99.90
29731;DHT22;16639;51.488;0.152;2024-02-15T03:03:28;12.60;99.90
29731;DHT22;16639;51.488;0.152;2024-02-15T03:05:56;12.50;99.90
29731;DHT22;16639;51.488;0.152;2024-02-15T03:08:23;12.50;99.90
29731;DHT22;16639;51.488;0.152;2024-02-15T03:10:51;12.50;99.90
29731;DHT22;16639;51.488;0.152;2024-02-15T03:13:20;12.50;99.90
29731;DHT22;16639;51.488;0.152;2024-02-15T03:15:47;12.50;99.90
29731;DHT22;16639;51.488;0.152;2024-02-15T03:18:15;12.50;99.90
29731;DHT22;16639;51.488;0.152;2024-02-15T03:20:43;12.40;99.90
29731;DHT22;16639;51.488;0.152;2024-02-15T03:23:11;12.50;99.90
29731;DHT22;16639;51.488;0.152;2024-02-15T03:25:39;12.50;99.90
29731;DHT22;16639;51.488;0.152;2024-02-15T03:28:06;12.50;99.90
29731;DHT22;16639;51.488;0.152;2024-02-15T03:30:33;12.50;99.90
29731;DHT22;16639;51.488;0.152;2024-02-15T03:33:02;12.60;99.90
29731;DHT22;16639;51.488;0.152;2024-02-15T03:35:34;12.60;99.90
29731;DHT22;16639;51.488;0.152;2024-02-15T03:38:02;12.60;99.90
29731;DHT22;16639;51.488;0.152;2024-02-15T03:40:29;12.60;99.90
29731;DHT22;16639;51.488;0.152;2024-02-15T03:42:58;12.60;99.90
29731;DHT22;16639;51.488;0.152;2024-02-15T03:45:25;12.60;99.90
29731;DHT22;16639;51.488;0.152;2024-02-15T03:47:54;13.30;99.90
29731;DHT22;16639;51.488;0.152;2024-02-15T03:50:23;12.50;99.90
29731;DHT22;16639;51.488;0.152;2024-02-15T03:52:51;12.50;99.90
29731;DHT22;16639;51.488;0.152;2024-02-15T03:55:18;12.50;99.90
29731;DHT22;16639;51.488;0.152;2024-02-15T03:57:46;12.50;99.90
29731;DHT22;16639;51.488;0.152;2024-02-15T04:00:14;12.50;99.90
29731;DHT22;16639;51.488;0.152;2024-02-15T04:02:49;12.50;99.90
29731;DHT22;16639;51.488;0.152;2024-02-15T04:05:17;12.50;99.90
29731;DHT22;16639;51.488;0.152;2024-02-15T04:07:45;12.70;99.90
29731;DHT22;16639;51.488;0.152;2024-02-15T04:10:13;12.60;99.90
29731;DHT22;16639;51.488;0.152;2024-02-15T04:12:41;12.60;99.90
29731;DHT22;16639;51.488;0.152;2024-02-15T04:15:11;12.60;99.90
29731;DHT22;16639;51.488;0.152;2024-02-15T04:17:41;12.50;99.90
29731;DHT22;16639;51.488;0.152;2024-02-15T04:20:10;12.60;99.90
29731;DHT22;16639;51.488;0.152;2024-02-15T04:22:39;12.50;99.90
29731;DHT22;16639;51.488;0.152;2024-02-15T04:25:10;12.50;99.90
29731;DHT22;16639;51.488;0.152;2024-02-15T04:27:38;12.60;99.90
29731;DHT22;16639;51.488;0.152;2024-02-15T04:30:07;12.60;99.90
29731;DHT22;16639;51.488;0.152;2024-02-15T04:32:36;12.60;99.90
29731;DHT22;16639;51.488;0.152;2024-02-15T04:35:04;12.60;99.90
29731;DHT22;16639;51.488;0.152;2024-02-15T04:37:35;12.60;99.90
29731;DHT22;16639;51.488;0.152;2024-02-15T04:40:05;12.60;99.90
29731;DHT22;16639;51.488;0.152;2024-02-15T04:42:37;12.60;99.90
29731;DHT22;16639;51.488;0.152;2024-02-15T04:45:08;12.60;99.90
29731;DHT22;16639;51.488;0.152;2024-02-15T04:47:41;12.60;99.90
29731;DHT22;16639;51.488;0.152;2024-02-15T04:50:09;12.60;99.90
29731;DHT22;16639;51.488;0.152;2024-02-15T04:52:36;12.60;99.90
29731;DHT22;16639;51.488;0.152;2024-02-15T04:55:04;12.60;99.90
29731;DHT22;16639;51.488;0.152;2024-02-15T04:57:34;12.60;99.90
29731;DHT22;16639;51.488;0.152;2024-02-15T05:00:05;12.60;99.90
29731;DHT22;16639;51.488;0.152;2024-02-15T05:02:38;12.60;99.90
29731;DHT22;16639;51.488;0.152;2024-02-15T05:05:13;12.60;99.90
29731;DHT22;16639;51.488;0.152;2024-02-15T05:07:42;12.60;99.90
29731;DHT22;16639;51.488;0.152;2024-02-15T05:10:10;12.60;99.90
29731;DHT22;16639;51.488;0.152;2024-02-15T05:12:38;12.60;99.90
29731;DHT22;16639;51.488;0.152;2024-02-15T05:15:10;12.60;99.90
29731;DHT22;16639;51.488;0.152;2024-02-15T05:17:40;12.60;99.90
29731;DHT22;16639;51.488;0.152;2024-02-15T05:20:11;12.80;99.90
29731;DHT22;16639;51.488;0.152;2024-02-15T05:22:41;12.70;99.90
29731;DHT22;16639;51.488;0.152;2024-02-15T05:25:18;12.70;99.90
29731;DHT22;16639;51.488;0.152;2024-02-15T05:27:53;12.60;99.90
29731;DHT22;16639;51.488;0.152;2024-02-15T05:30:22;12.60;99.90
29731;DHT22;16639;51.488;0.152;2024-02-15T05:32:51;12.60;99.90
29731;DHT22;16639;51.488;0.152;2024-02-15T05:35:21;12.80;99.90
29731;DHT22;16639;51.488;0.152;2024-02-15T05:37:49;12.90;99.90
29731;DHT22;16639;51.488;0.152;2024-02-15T05:40:20;12.70;99.90
29731;DHT22;16639;51.488;0.152;2024-02-15T05:42:47;14.30;99.90
29731;DHT22;16639;51.488;0.152;2024-02-15T05:45:35;12.80;99.90
29731;DHT22;16639;51.488;0.152;2024-02-15T05:48:04;12.70;99.90
29731;DHT22;16639;51.488;0.152;2024-02-15T05:50:34;12.70;99.90
29731;DHT22;16639;51.488;0.152;2024-02-15T05:53:02;12.80;99.90
29731;DHT22;16639;51.488;0.152;2024-02-15T05:55:31;12.80;99.90
29731;DHT22;16639;51.488;0.152;2024-02-15T05:58:02;12.90;99.90
29731;DHT22;16639;51.488;0.152;2024-02-15T06:00:30;12.80;99.90
29731;DHT22;16639;51.488;0.152;2024-02-15T06:02:58;12.80;99.90
29731;DHT22;16639;51.488;0.152;2024-02-15T06:05:26;13.20;99.90
29731;DHT22;16639;51.488;0.152;2024-02-15T06:07:54;12.80;99.90
29731;DHT22;16639;51.488;0.152;2024-02-15T06:10:22;12.90;99.90
29731;DHT22;16639;51.488;0.152;2024-02-15T06:12:49;12.80;99.90
29731;DHT22;16639;51.488;0.152;2024-02-15T06:15:17;12.80;99.90
29731;DHT22;16639;51.488;0.152;2024-02-15T06:17:46;12.90;99.90
29731;DHT22;16639;51.488;0.152;2024-02-15T06:20:15;12.80;99.90
29731;DHT22;16639;51.488;0.152;2024-02-15T06:22:50;12.80;99.90
29731;DHT22;16639;51.488;0.152;2024-02-15T06:25:19;12.80;99.90
29731;DHT22;16639;51.488;0.152;2024-02-15T06:27:49;12.80;99.90
29731;DHT22;16639;51.488;0.152;2024-02-15T06:30:20;12.80;99.90
29731;DHT22;16639;51.488;0.152;2024-02-15T06:33:06;13.00;99.90
29731;DHT22;16639;51.488;0.152;2024-02-15T06:35:52;12.80;99.90
29731;DHT22;16639;51.488;0.152;2024-02-15T06:38:38;12.80;99.90
29731;DHT22;16639;51.488;0.152;2024-02-15T06:41:24;12.70;99.90
29731;DHT22;16639;51.488;0.152;2024-02-15T06:43:53;12.80;99.90
29731;DHT22;16639;51.488;0.152;2024-02-15T06:46:21;13.70;99.90
29731;DHT22;16639;51.488;0.152;2024-02-15T06:48:48;12.70;99.90
29731;DHT22;16639;51.488;0.152;2024-02-15T06:51:16;12.70;99.90
29731;DHT22;16639;51.488;0.152;2024-02-15T06:53:43;12.80;99.90
29731;DHT22;16639;51.488;0.152;2024-02-15T06:56:11;12.60;99.90
29731;DHT22;16639;51.488;0.152;2024-02-15T06:58:39;12.50;99.90
29731;DHT22;16639;51.488;0.152;2024-02-15T07:01:09;12.60;99.90
29731;DHT22;16639;51.488;0.152;2024-02-15T07:03:38;12.50;99.90
29731;DHT22;16639;51.488;0.152;2024-02-15T07:06:06;12.50;99.90
29731;DHT22;16639;51.488;0.152;2024-02-15T07:08:34;12.60;99.90
29731;DHT22;16639;51.488;0.152;2024-02-15T07:11:02;12.40;99.90
29731;DHT22;16639;51.488;0.152;2024-02-15T07:13:31;12.40;99.90
29731;DHT22;16639;51.488;0.152;2024-02-15T07:15:59;12.40;99.90
29731;DHT22;16639;51.488;0.152;2024-02-15T07:18:26;12.40;99.90
29731;DHT22;16639;51.488;0.152;2024-02-15T07:20:56;12.40;99.90
29731;DHT22;16639;51.488;0.152;2024-02-15T07:23:27;12.30;99.90
29731;DHT22;16639;51.488;0.152;2024-02-15T07:25:55;12.30;99.90
29731;DHT22;16639;51.488;0.152;2024-02-15T07:28:23;12.30;99.90
29731;DHT22;16639;51.488;0.152;2024-02-15T07:30:53;12.30;99.90
29731;DHT22;16639;51.488;0.152;2024-02-15T07:33:22;12.30;99.90
29731;DHT22;16639;51.488;0.152;2024-02-15T07:35:51;12.30;99.90
29731;DHT22;16639;51.488;0.152;2024-02-15T07:38:19;12.30;99.90
29731;DHT22;16639;51.488;0.152;2024-02-15T07:40:50;11.80;99.90
29731;DHT22;16639;51.488;0.152;2024-02-15T07:43:17;12.20;99.90
29731;DHT22;16639;51.488;0.152;2024-02-15T07:45:48;12.20;99.90
29731;DHT22;16639;51.488;0.152;2024-02-15T07:48:17;12.30;99.90
29731;DHT22;16639;51.488;0.152;2024-02-15T07:50:45;12.70;99.90
29731;DHT22;16639;51.488;0.152;2024-02-15T07:53:12;13.00;99.90
29731;DHT22;16639;51.488;0.152;2024-02-15T07:55:40;12.30;99.90
29731;DHT22;16639;51.488;0.152;2024-02-15T07:58:09;12.30;99.90
29731;DHT22;16639;51.488;0.152;2024-02-15T08:00:37;12.30;99.90
29731;DHT22;16639;51.488;0.152;2024-02-15T08:03:05;12.30;99.90
29731;DHT22;16639;51.488;0.152;2024-02-15T08:05:33;12.30;99.90
29731;DHT22;16639;51.488;0.152;2024-02-15T08:08:00;12.30;99.90
29731;DHT22;16639;51.488;0.152;2024-02-15T08:10:28;12.30;99.90
29731;DHT22;16639;51.488;0.152;2024-02-15T08:12:56;12.30;99.90
29731;DHT22;16639;51.488;0.152;2024-02-15T08:15:25;12.30;99.90
29731;DHT22;16639;51.488;0.152;2024-02-15T08:17:55;12.30;99.90
29731;DHT22;16639;51.488;0.152;2024-02-15T08:20:23;12.30;99.90
29731;DHT22;16639;51.488;0.152;2024-02-15T08:22:50;12.30;99.90
29731;DHT22;16639;51.488;0.152;2024-02-15T08:25:18;12.30;99.90
29731;DHT22;16639;51.488;0.152;2024-02-15T08:27:48;12.80;99.90
29731;DHT22;16639;51.488;0.152;2024-02-15T08:30:18;12.30;99.90
29731;DHT22;16639;51.488;0.152;2024-02-15T08:32:51;12.40;99.90
29731;DHT22;16639;51.488;0.152;2024-02-15T08:35:22;12.40;99.90
29731;DHT22;16639;51.488;0.152;2024-02-15T08:37:50;12.40;99.90
29731;DHT22;16639;51.488;0.152;2024-02-15T08:40:20;12.50;99.90
29731;DHT22;16639;51.488;0.152;2024-02-15T08:42:53;12.50;99.90
29731;DHT22;16639;51.488;0.152;2024-02-15T08:45:20;12.50;99.90
29731;DHT22;16639;51.488;0.152;2024-02-15T08:47:48;12.60;99.90
29731;DHT22;16639;51.488;0.152;2024-02-15T08:50:17;12.60;99.90
29731;DHT22;16639;51.488;0.152;2024-02-15T08:52:45;12.60;99.90
29731;DHT22;16639;51.488;0.152;2024-02-15T08:55:14;12.60;99.90
29731;DHT22;16639;51.488;0.152;2024-02-15T08:57:42;12.70;99.90
29731;DHT22;16639;51.488;0.152;2024-02-15T09:00:12;12.70;99.90
29731;DHT22;16639;51.488;0.152;2024-02-15T09:02:47;12.80;99.90
29731;DHT22;16639;51.488;0.152;2024-02-15T09:05:16;12.70;99.90
29731;DHT22;16639;51.488;0.152;2024-02-15T09:07:45;12.70;99.90
29731;DHT22;16639;51.488;0.152;2024-02-15T09:10:15;12.70;99.90
29731;DHT22;16639;51.488;0.152;2024-02-15T09:12:46;12.70;99.90
29731;DHT22;16639;51.488;0.152;2024-02-15T09:15:17;12.70;99.90
29731;DHT22;16639;51.488;0.152;2024-02-15T09:17:45;12.70;99.90
29731;DHT22;16639;51.488;0.152;2024-02-15T09:20:16;12.80;99.90
29731;DHT22;16639;51.488;0.152;2024-02-15T09:22:50;12.70;99.90
29731;DHT22;16639;51.488;0.152;2024-02-15T09:25:18;12.70;99.90
29731;DHT22;16639;51.488;0.152;2024-02-15T09:27:46;12.20;99.90
29731;DHT22;16639;51.488;0.152;2024-02-15T09:30:14;12.80;99.90
29731;DHT22;16639;51.488;0.152;2024-02-15T09:32:42;12.80;99.90
29731;DHT22;16639;51.488;0.152;2024-02-15T09:35:11;12.80;99.90
29731;DHT22;16639;51.488;0.152;2024-02-15T09:37:44;12.90;99.90
29731;DHT22;16639;51.488;0.152;2024-02-15T09:40:12;12.90;99.90
29731;DHT22;16639;51.488;0.152;2024-02-15T09:42:40;12.90;99.90
29731;DHT22;16639;51.488;0.152;2024-02-15T09:45:14;12.90;99.90
29731;DHT22;16639;51.488;0.152;2024-02-15T09:47:43;12.90;99.90
29731;DHT22;16639;51.488;0.152;2024-02-15T09:50:12;12.90;99.90
29731;DHT22;16639;51.488;0.152;2024-02-15T09:53:00;14.20;99.90
29731;DHT22;16639;51.488;0.152;2024-02-15T09:55:36;13.00;99.90
29731;DHT22;16639;51.488;0.152;2024-02-15T09:58:06;13.00;99.90
29731;DHT22;16639;51.488;0.152;2024-02-15T10:00:36;13.00;99.90
29731;DHT22;16639;51.488;0.152;2024-02-15T10:03:06;13.00;99.90
29731;DHT22;16639;51.488;0.152;2024-02-15T10:05:34;13.00;99.90
29731;DHT22;16639;51.488;0.152;2024-02-15T10:08:02;13.00;99.90
29731;DHT22;16639;51.488;0.152;2024-02-15T10:10:30;13.00;99.90
29731;DHT22;16639;51.488;0.152;2024-02-15T10:13:01;13.00;99.90
29731;DHT22;16639;51.488;0.152;2024-02-15T10:15:39;13.00;99.90
29731;DHT22;16639;51.488;0.152;2024-02-15T10:18:09;13.10;99.90
29731;DHT22;16639;51.488;0.152;2024-02-15T10:20:39;12.50;99.90
29731;DHT22;16639;51.488;0.152;2024-02-15T10:25:38;13.10;99.90
29731;DHT22;16639;51.488;0.152;2024-02-15T10:28:22;13.10;99.90
29731;DHT22;16639;51.488;0.152;2024-02-15T10:30:54;13.10;99.90
29731;DHT22;16639;51.488;0.152;2024-02-15T10:33:37;13.10;99.90
29731;DHT22;16639;51.488;0.152;2024-02-15T10:36:11;13.20;99.90
29731;DHT22;16639;51.488;0.152;2024-02-15T10:38:46;13.20;99.90
29731;DHT22;16639;51.488;0.152;2024-02-15T10:41:16;13.20;99.90
29731;DHT22;16639;51.488;0.152;2024-02-15T10:43:45;13.20;99.90
29731;DHT22;16639;51.488;0.152;2024-02-15T10:46:15;13.30;99.90
29731;DHT22;16639;51.488;0.152;2024-02-15T10:48:47;13.30;99.90
29731;DHT22;16639;51.488;0.152;2024-02-15T10:51:20;13.30;99.90
29731;DHT22;16639;51.488;0.152;2024-02-15T10:54:01;13.30;99.90
29731;DHT22;16639;51.488;0.152;2024-02-15T10:56:37;13.30;99.90
29731;DHT22;16639;51.488;0.152;2024-02-15T10:59:17;13.30;99.90
29731;DHT22;16639;51.488;0.152;2024-02-15T11:01:46;13.40;99.90
29731;DHT22;16639;51.488;0.152;2024-02-15T11:04:20;13.40;99.90
29731;DHT22;16639;51.488;0.152;2024-02-15T11:06:50;13.40;99.90
29731;DHT22;16639;51.488;0.152;2024-02-15T11:09:18;13.40;99.90
29731;DHT22;16639;51.488;0.152;2024-02-15T11:11:47;13.50;99.90
29731;DHT22;16639;51.488;0.152;2024-02-15T11:14:30;13.50;99.90
29731;DHT22;16639;51.488;0.152;2024-02-15T11:17:00;13.60;99.90
29731;DHT22;16639;51.488;0.152;2024-02-15T11:22:14;13.60;99.90
29731;DHT22;16639;51.488;0.152;2024-02-15T11:24:50;13.60;99.90
29731;DHT22;16639;51.488;0.152;2024-02-15T11:27:26;13.70;99.90
29731;DHT22;16639;51.488;0.152;2024-02-15T11:29:57;13.70;99.90
29731;DHT22;16639;51.488;0.152;2024-02-15T11:32:46;13.70;99.90
29731;DHT22;16639;51.488;0.152;2024-02-15T11:35:22;13.30;99.90
29731;DHT22;16639;51.488;0.152;2024-02-15T11:37:53;13.80;99.90
29731;DHT22;16639;51.488;0.152;2024-02-15T11:40:27;14.00;99.90
29731;DHT22;16639;51.488;0.152;2024-02-15T11:42:57;13.90;99.90
29731;DHT22;16639;51.488;0.152;2024-02-15T11:45:29;14.00;99.90
29731;DHT22;16639;51.488;0.152;2024-02-15T11:48:01;14.00;99.90
29731;DHT22;16639;51.488;0.152;2024-02-15T11:50:34;14.00;99.90
29731;DHT22;16639;51.488;0.152;2024-02-15T11:53:04;14.10;99.90
29731;DHT22;16639;51.488;0.152;2024-02-15T11:55:40;14.10;99.90
29731;DHT22;16639;51.488;0.152;2024-02-15T11:58:09;14.10;99.90
29731;DHT22;16639;51.488;0.152;2024-02-15T12:00:38;14.20;99.90
29731;DHT22;16639;51.488;0.152;2024-02-15T12:03:24;14.20;99.90
29731;DHT22;16639;51.488;0.152;2024-02-15T12:06:30;14.30;99.90
29731;DHT22;16639;51.488;0.152;2024-02-15T12:09:18;14.30;99.90
29731;DHT22;16639;51.488;0.152;2024-02-15T12:12:05;14.30;99.90
29731;DHT22;16639;51.488;0.152;2024-02-15T12:15:01;14.30;99.90
29731;DHT22;16639;51.488;0.152;2024-02-15T12:17:48;14.40;99.90
29731;DHT22;16639;51.488;0.152;2024-02-15T12:20:35;14.40;99.90
29731;DHT22;16639;51.488;0.152;2024-02-15T12:23:03;14.60;99.90
29731;DHT22;16639;51.488;0.152;2024-02-15T12:25:35;14.50;99.90
29731;DHT22;16639;51.488;0.152;2024-02-15T12:28:03;14.60;99.90
29731;DHT22;16639;51.488;0.152;2024-02-15T12:30:34;14.60;99.90
29731;DHT22;16639;51.488;0.152;2024-02-15T12:33:11;14.70;99.90
29731;DHT22;16639;51.488;0.152;2024-02-15T12:35:40;14.30;99.90
29731;DHT22;16639;51.488;0.152;2024-02-15T12:38:12;14.60;99.90
29731;DHT22;16639;51.488;0.152;2024-02-15T12:40:45;14.60;99.90
29731;DHT22;16639;51.488;0.152;2024-02-15T12:43:15;15.20;99.90
29731;DHT22;16639;51.488;0.152;2024-02-15T12:45:42;14.60;99.90
29731;DHT22;16639;51.488;0.152;2024-02-15T12:48:10;14.60;99.90
29731;DHT22;16639;51.488;0.152;2024-02-15T12:50:39;14.70;99.90
29731;DHT22;16639;51.488;0.152;2024-02-15T12:53:07;14.70;99.90
29731;DHT22;16639;51.488;0.152;2024-02-15T12:55:37;14.80;99.90
29731;DHT22;16639;51.488;0.152;2024-02-15T12:58:12;14.80;99.90
29731;DHT22;16639;51.488;0.152;2024-02-15T13:00:42;14.90;99.90
29731;DHT22;16639;51.488;0.152;2024-02-15T13:03:11;14.90;99.90
29731;DHT22;16639;51.488;0.152;2024-02-15T13:05:41;14.90;99.90
29731;DHT22;16639;51.488;0.152;2024-02-15T13:08:09;14.90;99.90
29731;DHT22;16639;51.488;0.152;2024-02-15T13:10:44;15.00;99.90
29731;DHT22;16639;51.488;0.152;2024-02-15T13:13:13;15.10;99.90
29731;DHT22;16639;51.488;0.152;2024-02-15T13:15:45;15.10;99.90
29731;DHT22;16639;51.488;0.152;2024-02-15T13:18:21;15.00;99.90
29731;DHT22;16639;51.488;0.152;2024-02-15T13:20:49;15.10;99.90
29731;DHT22;16639;51.488;0.152;2024-02-15T13:23:20;15.10;99.90
29731;DHT22;16639;51.488;0.152;2024-02-15T13:25:54;15.00;99.90
29731;DHT22;16639;51.488;0.152;2024-02-15T13:28:24;15.00;99.90
29731;DHT22;16639;51.488;0.152;2024-02-15T13:30:52;15.00;99.90
29731;DHT22;16639;51.488;0.152;2024-02-15T13:33:21;15.00;99.90
29731;DHT22;16639;51.488;0.152;2024-02-15T13:35:49;14.70;99.90
29731;DHT22;16639;51.488;0.152;2024-02-15T13:38:17;15.00;99.90
29731;DHT22;16639;51.488;0.152;2024-02-15T13:40:51;15.00;99.90
29731;DHT22;16639;51.488;0.152;2024-02-15T13:43:19;15.00;99.90
29731;DHT22;16639;51.488;0.152;2024-02-15T13:45:49;15.00;99.90
29731;DHT22;16639;51.488;0.152;2024-02-15T13:48:16;15.00;99.90
29731;DHT22;16639;51.488;0.152;2024-02-15T13:50:44;15.10;99.90
29731;DHT22;16639;51.488;0.152;2024-02-15T13:53:12;15.10;99.90
29731;DHT22;16639;51.488;0.152;2024-02-15T13:55:41;15.10;99.90
29731;DHT22;16639;51.488;0.152;2024-02-15T13:58:08;15.10;99.90
29731;DHT22;16639;51.488;0.152;2024-02-15T14:00:41;15.10;99.90
29731;DHT22;16639;51.488;0.152;2024-02-15T14:03:11;15.10;99.90
29731;DHT22;16639;51.488;0.152;2024-02-15T14:05:40;15.10;99.90
29731;DHT22;16639;51.488;0.152;2024-02-15T14:08:09;15.20;99.90
29731;DHT22;16639;51.488;0.152;2024-02-15T14:10:38;15.20;99.90
29731;DHT22;16639;51.488;0.152;2024-02-15T14:13:12;15.30;99.90
29731;DHT22;16639;51.488;0.152;2024-02-15T14:15:44;15.30;99.90
29731;DHT22;16639;51.488;0.152;2024-02-15T14:18:20;15.30;99.90
29731;DHT22;16639;51.488;0.152;2024-02-15T14:20:51;15.30;99.90
29731;DHT22;16639;51.488;0.152;2024-02-15T14:23:26;15.30;99.90
29731;DHT22;16639;51.488;0.152;2024-02-15T14:26:00;15.30;99.90
29731;DHT22;16639;51.488;0.152;2024-02-15T14:28:29;15.30;99.90
29731;DHT22;16639;51.488;0.152;2024-02-15T14:30:57;15.30;99.90
29731;DHT22;16639;51.488;0.152;2024-02-15T14:33:43;15.30;99.90
29731;DHT22;16639;51.488;0.152;2024-02-15T14:36:10;15.30;99.90
29731;DHT22;16639;51.488;0.152;2024-02-15T14:38:39;15.20;99.90
29731;DHT22;16639;51.488;0.152;2024-02-15T14:41:06;15.20;99.90
29731;DHT22;16639;51.488;0.152;2024-02-15T14:43:37;15.20;99.90
29731;DHT22;16639;51.488;0.152;2024-02-15T14:46:04;15.20;99.90
29731;DHT22;16639;51.488;0.152;2024-02-15T14:48:37;15.20;99.90
29731;DHT22;16639;51.488;0.152;2024-02-15T14:51:07;15.10;99.90
29731;DHT22;16639;51.488;0.152;2024-02-15T14:53:36;15.20;99.90
29731;DHT22;16639;51.488;0.152;2024-02-15T14:56:04;15.20;99.90
29731;DHT22;16639;51.488;0.152;2024-02-15T14:58:33;15.20;99.90
29731;DHT22;16639;51.488;0.152;2024-02-15T15:01:00;15.20;99.90
29731;DHT22;16639;51.488;0.152;2024-02-15T15:03:34;15.20;99.90
29731;DHT22;16639;51.488;0.152;2024-02-15T15:06:07;15.20;99.90
29731;DHT22;16639;51.488;0.152;2024-02-15T15:08:54;15.10;99.90
29731;DHT22;16639;51.488;0.152;2024-02-15T15:11:43;15.30;99.90
29731;DHT22;16639;51.488;0.152;2024-02-15T15:14:29;15.30;99.90
29731;DHT22;16639;51.488;0.152;2024-02-15T15:16:56;15.30;99.90
29731;DHT22;16639;51.488;0.152;2024-02-15T15:19:24;15.30;99.90
29731;DHT22;16639;51.488;0.152;2024-02-15T15:21:52;15.30;99.90
29731;DHT22;16639;51.488;0.152;2024-02-15T15:24:21;15.30;99.90
29731;DHT22;16639;51.488;0.152;2024-02-15T15:26:48;15.30;99.90
29731;DHT22;16639;51.488;0.152;2024-02-15T15:29:15;15.30;99.90
29731;DHT22;16639;51.488;0.152;2024-02-15T15:31:43;15.30;99.90
29731;DHT22;16639;51.488;0.152;2024-02-15T15:34:10;15.30;99.90
29731;DHT22;16639;51.488;0.152;2024-02-15T15:36:38;15.20;99.90
29731;DHT22;16639;51.488;0.152;2024-02-15T15:39:06;15.20;99.90
29731;DHT22;16639;51.488;0.152;2024-02-15T15:41:36;15.20;99.90
29731;DHT22;16639;51.488;0.152;2024-02-15T15:44:04;15.00;99.90
29731;DHT22;16639;51.488;0.152;2024-02-15T15:46:32;15.10;99.90
29731;DHT22;16639;51.488;0.152;2024-02-15T15:49:00;15.10;99.90
29731;DHT22;16639;51.488;0.152;2024-02-15T15:51:28;15.10;99.90
29731;DHT22;16639;51.488;0.152;2024-02-15T15:53:56;15.00;99.90